Time;durP1;ratioP1;P1;durP2;ratioP2;P2;SDS_P1;SDS_P2;PMS_P1;PMS_P2;Temp;Humidity;BMP_temperature;BMP_pressure;BME280_temperature;BME280_humidity;BME280_pressure;Samples;Min_cycle;Max_cycle;Signal;HPM_P1;HPM_P2
2023/06/09 03:01:52;;;;;;;20.35;7.43;;;12.80;99.90;;;;;;5330480;23;19922;-77
2023/06/09 03:04:18;;;;;;;21.50;7.45;;;12.70;99.90;;;;;;4996213;28;20042;-77
2023/06/09 03:06:44;;;;;;;22.52;7.55;;;12.70;99.90;;;;;;4995813;28;20046;-77
2023/06/09 03:09:12;;;;;;;21.20;6.88;;;12.80;99.90;;;;;;4996142;28;20378;-77
2023/06/09 03:11:38;;;;;;;24.23;8.48;;;12.80;99.90;;;;;;4996083;28;20042;-76
2023/06/09 03:14:04;;;;;;;20.30;7.75;;;12.70;99.90;;;;;;4997289;28;20482;-77
2023/06/09 03:16:30;;;;;;;21.73;7.82;;;12.70;99.90;;;;;;4996061;28;20441;-78
2023/06/09 03:18:56;;;;;;;21.50;8.30;;;12.80;99.90;;;;;;4995628;28;20042;-77
2023/06/09 03:21:24;;;;;;;22.73;8.02;;;12.80;99.90;;;;;;4995144;28;20057;-76
2023/06/09 03:23:50;;;;;;;20.17;6.93;;;12.70;99.90;;;;;;4997420;28;20034;-76
2023/06/09 03:26:17;;;;;;;23.55;8.05;;;12.70;99.90;;;;;;4995865;28;20058;-77
2023/06/09 03:28:43;;;;;;;18.55;7.30;;;12.70;99.90;;;;;;4995749;28;20467;-76
2023/06/09 03:31:09;;;;;;;19.67;7.72;;;12.70;99.90;;;;;;4996470;28;20077;-76
2023/06/09 03:33:35;;;;;;;25.33;8.60;;;12.70;99.90;;;;;;4995513;28;20046;-77
2023/06/09 03:36:02;;;;;;;18.77;7.65;;;12.70;99.90;;;;;;4995797;28;20073;-77
2023/06/09 03:38:28;;;;;;;20.80;7.40;;;12.70;99.90;;;;;;4995586;28;20082;-77
2023/06/09 03:40:53;;;;;;;20.42;7.75;;;12.70;99.90;;;;;;4996840;28;20073;-77
2023/06/09 03:43:19;;;;;;;22.42;7.80;;;12.70;99.90;;;;;;4996930;28;20101;-77
2023/06/09 03:45:45;;;;;;;18.60;7.20;;;12.70;99.90;;;;;;4995338;28;20042;-77
2023/06/09 03:48:10;;;;;;;22.08;8.00;;;12.70;99.90;;;;;;4995280;28;20050;-79
2023/06/09 03:50:36;;;;;;;20.65;8.13;;;12.70;99.90;;;;;;4994851;28;20079;-76
2023/06/09 03:53:02;;;;;;;22.40;8.38;;;12.80;99.90;;;;;;4978882;28;20046;-76
2023/06/09 03:55:29;;;;;;;20.33;7.72;;;12.70;99.90;;;;;;4995027;28;20050;-77
2023/06/09 03:57:55;;;;;;;23.33;8.23;;;12.70;99.90;;;;;;4995988;28;20105;-76
2023/06/09 04:00:21;;;;;;;16.27;7.60;;;12.70;99.90;;;;;;4994637;28;20042;-77
2023/06/09 04:02:47;;;;;;;24.20;7.55;;;12.70;99.90;;;;;;4994691;28;20046;-76
2023/06/09 04:05:12;;;;;;;14.68;7.75;;;12.80;99.90;;;;;;4994527;28;20046;-77
2023/06/09 04:07:39;;;;;;;21.40;9.02;;;12.80;99.90;;;;;;4995103;28;20077;-77
2023/06/09 04:10:06;;;;;;;21.23;7.47;;;12.70;99.90;;;;;;4996936;28;20046;-77
2023/06/09 04:12:31;;;;;;;19.30;7.70;;;12.80;99.90;;;;;;4994470;28;20046;-77
2023/06/09 04:14:59;;;;;;;24.48;8.45;;;12.80;99.90;;;;;;4996072;28;20041;-77
2023/06/09 04:17:24;;;;;;;18.88;7.47;;;12.80;99.90;;;;;;4994254;28;20117;-76
2023/06/09 04:19:51;;;;;;;17.85;8.07;;;12.80;99.90;;;;;;4994303;28;20121;-76
2023/06/09 04:22:16;;;;;;;23.33;8.00;;;12.80;99.90;;;;;;4995582;28;20039;-76
2023/06/09 04:24:43;;;;;;;18.33;7.90;;;12.90;99.90;;;;;;4994737;28;20042;-77
2023/06/09 04:27:09;;;;;;;27.58;9.20;;;12.80;99.90;;;;;;4995501;28;20042;-76
2023/06/09 04:29:35;;;;;;;19.98;8.13;;;12.90;99.90;;;;;;4994046;28;20144;-77
2023/06/09 04:32:01;;;;;;;18.63;7.55;;;12.90;99.90;;;;;;4977622;28;20514;-76
2023/06/09 04:34:28;;;;;;;20.27;8.00;;;12.90;99.90;;;;;;4977593;28;20049;-77
2023/06/09 04:36:55;;;;;;;23.85;8.20;;;12.90;99.90;;;;;;4994076;28;20073;-74
2023/06/09 04:39:24;;;;;;;19.35;7.68;;;13.00;99.90;;;;;;4977402;28;20049;-75
2023/06/09 04:41:52;;;;;;;21.38;7.90;;;13.00;99.90;;;;;;4994305;28;20038;-75
2023/06/09 04:44:18;;;;;;;23.33;7.80;;;13.00;99.90;;;;;;4994858;28;20507;-76
2023/06/09 04:46:44;;;;;;;20.75;8.52;;;13.00;99.90;;;;;;4994612;28;20074;-75
2023/06/09 04:49:09;;;;;;;24.65;9.32;;;13.00;99.90;;;;;;4993447;28;20121;-76
2023/06/09 04:51:46;;;;;;;21.90;8.32;;;13.00;99.90;;;;;;4986247;28;20038;-76
2023/06/09 04:54:16;;;;;;;23.05;8.10;;;13.00;99.90;;;;;;4993046;28;20042;-75
2023/06/09 04:56:43;;;;;;;20.50;7.97;;;13.10;99.90;;;;;;4994566;28;20061;-77
2023/06/09 04:59:13;;;;;;;19.23;7.60;;;13.10;99.90;;;;;;4978341;28;20474;-79
2023/06/09 05:01:40;;;;;;;27.40;8.45;;;13.10;99.90;;;;;;4974764;28;20031;-74
2023/06/09 05:04:09;;;;;;;20.48;8.50;;;13.10;99.90;;;;;;4975632;28;20045;-75
2023/06/09 05:06:36;;;;;;;20.17;8.02;;;13.20;99.90;;;;;;4991705;28;20490;-77
2023/06/09 05:09:04;;;;;;;19.92;8.18;;;13.20;99.90;;;;;;4991074;28;20597;-76
2023/06/09 05:11:30;;;;;;;22.13;8.57;;;13.30;99.90;;;;;;4989963;28;20038;-75
2023/06/09 05:13:55;;;;;;;24.00;7.70;;;13.30;99.90;;;;;;4994113;28;20108;-76
2023/06/09 05:16:25;;;;;;;24.23;8.52;;;13.30;99.90;;;;;;4974506;28;20073;-75
2023/06/09 05:18:52;;;;;;;17.60;8.48;;;13.40;99.90;;;;;;4989127;28;20061;-74
2023/06/09 05:21:17;;;;;;;20.17;7.75;;;13.40;99.90;;;;;;4993576;28;20041;-76
2023/06/09 05:23:43;;;;;;;24.15;8.38;;;13.50;99.90;;;;;;4993555;28;20047;-76
2023/06/09 05:26:09;;;;;;;22.00;8.68;;;13.50;99.90;;;;;;4994881;28;20037;-77
2023/06/09 05:28:35;;;;;;;22.23;7.80;;;13.50;99.90;;;;;;4993485;28;20045;-76
2023/06/09 05:31:01;;;;;;;23.70;8.70;;;13.50;99.90;;;;;;4994850;28;20035;-78
2023/06/09 05:33:27;;;;;;;19.25;8.23;;;13.60;99.90;;;;;;4977314;28;20042;-77
2023/06/09 05:35:52;;;;;;;27.42;8.40;;;13.60;99.90;;;;;;4993141;28;20095;-77
2023/06/09 05:38:19;;;;;;;18.10;8.50;;;13.60;99.90;;;;;;4992998;28;20046;-76
2023/06/09 05:40:45;;;;;;;23.25;8.85;;;13.70;99.90;;;;;;4993436;28;20054;-75
2023/06/09 05:43:11;;;;;;;22.92;8.77;;;13.70;99.90;;;;;;4992968;28;20097;-76
2023/06/09 05:45:37;;;;;;;24.80;9.45;;;13.70;99.90;;;;;;4993051;28;20078;-77
2023/06/09 05:48:03;;;;;;;26.60;8.88;;;13.80;99.90;;;;;;4993031;28;20429;-77
2023/06/09 05:50:28;;;;;;;23.88;8.73;;;13.80;99.90;;;;;;4993295;28;20034;-76
2023/06/09 05:52:54;;;;;;;29.95;9.85;;;13.90;99.90;;;;;;4992848;28;20207;-74
2023/06/09 05:55:20;;;;;;;24.23;8.95;;;13.90;99.90;;;;;;4971665;28;20092;-76
2023/06/09 05:57:46;;;;;;;22.75;8.85;;;14.00;99.90;;;;;;4993529;28;20050;-74
2023/06/09 06:00:12;;;;;;;23.55;8.32;;;14.00;99.90;;;;;;4995078;28;20042;-74
2023/06/09 06:02:40;;;;;;;21.25;9.30;;;14.10;99.90;;;;;;4993551;28;20449;-76
2023/06/09 06:05:06;;;;;;;28.55;9.73;;;14.10;99.90;;;;;;4993684;28;20486;-75
2023/06/09 06:07:38;;;;;;;22.60;9.15;;;14.10;99.90;;;;;;4995585;28;20057;-77
2023/06/09 06:10:05;;;;;;;19.38;8.27;;;14.20;99.90;;;;;;4993334;28;20074;-73
2023/06/09 06:12:34;;;;;;;22.33;8.38;;;14.30;99.90;;;;;;4993585;28;20100;-74
2023/06/09 06:15:00;;;;;;;26.92;8.80;;;14.30;99.90;;;;;;4992829;28;20045;-74
2023/06/09 06:17:26;;;;;;;18.20;8.45;;;14.40;99.90;;;;;;4994837;28;20038;-74
2023/06/09 06:19:51;;;;;;;22.85;8.57;;;14.40;99.90;;;;;;4995958;28;20122;-76
2023/06/09 06:22:17;;;;;;;15.55;8.32;;;14.50;99.90;;;;;;4997722;28;20070;-75
2023/06/09 06:24:43;;;;;;;26.10;9.10;;;14.50;99.90;;;;;;4998002;28;20070;-77
2023/06/09 06:27:08;;;;;;;24.23;8.70;;;14.60;99.90;;;;;;4996178;28;20098;-76
2023/06/09 06:29:38;;;;;;;25.65;9.98;;;14.60;99.90;;;;;;4995414;28;20121;-76
2023/06/09 06:32:05;;;;;;;19.58;8.32;;;14.70;99.90;;;;;;4997676;28;20090;-77
2023/06/09 06:34:31;;;;;;;22.17;9.55;;;14.70;99.90;;;;;;4997604;28;20042;-76
2023/06/09 06:36:56;;;;;;;18.27;8.40;;;14.80;99.90;;;;;;4997557;28;20038;-73
2023/06/09 06:39:22;;;;;;;21.55;8.40;;;14.90;99.90;;;;;;4998147;28;20027;-79
2023/06/09 06:41:48;;;;;;;19.65;8.60;;;14.90;99.90;;;;;;4997512;28;20521;-76
2023/06/09 06:44:14;;;;;;;21.52;9.50;;;15.00;99.90;;;;;;4996111;28;20101;-76
2023/06/09 06:46:39;;;;;;;20.75;9.23;;;15.10;99.90;;;;;;4995239;28;20097;-76
2023/06/09 06:49:05;;;;;;;22.52;8.80;;;15.10;99.90;;;;;;4994895;28;20038;-75
2023/06/09 06:51:31;;;;;;;20.73;8.30;;;15.20;99.90;;;;;;4997280;28;20038;-76
2023/06/09 06:53:57;;;;;;;18.20;8.35;;;15.20;99.90;;;;;;4997677;28;20065;-77
2023/06/09 06:56:22;;;;;;;21.90;9.18;;;15.30;99.90;;;;;;4997746;28;20109;-75
2023/06/09 06:58:49;;;;;;;19.23;8.20;;;15.40;99.90;;;;;;4998243;28;20034;-79
2023/06/09 07:01:15;;;;;;;22.75;8.40;;;15.50;99.90;;;;;;4997148;28;20514;-74
2023/06/09 07:03:42;;;;;;;18.60;8.85;;;15.50;99.90;;;;;;4997983;28;20243;-76
2023/06/09 07:06:09;;;;;;;19.75;8.38;;;15.60;99.90;;;;;;4995506;28;20053;-75
2023/06/09 07:08:35;;;;;;;22.02;9.00;;;15.70;99.90;;;;;;4996296;28;20535;-77
2023/06/09 07:11:01;;;;;;;19.83;8.00;;;15.80;99.90;;;;;;4995875;28;20042;-75
2023/06/09 07:13:27;;;;;;;18.25;7.80;;;15.80;99.90;;;;;;4993961;28;20046;-76
2023/06/09 07:15:53;;;;;;;20.23;8.52;;;15.90;99.90;;;;;;4996125;28;20040;-77
2023/06/09 07:18:19;;;;;;;20.60;7.53;;;16.00;99.90;;;;;;4995459;28;20486;-77
2023/06/09 07:20:44;;;;;;;15.52;7.63;;;16.10;99.90;;;;;;4994739;28;20074;-76
2023/06/09 07:23:10;;;;;;;18.77;7.35;;;16.20;99.90;;;;;;4994395;28;20082;-77
2023/06/09 07:25:36;;;;;;;20.42;7.53;;;16.20;99.90;;;;;;4996557;28;20045;-78
2023/06/09 07:28:02;;;;;;;16.88;7.28;;;16.30;99.90;;;;;;4994807;28;20040;-77
2023/06/09 07:30:27;;;;;;;19.17;7.63;;;16.40;99.90;;;;;;4995305;28;20044;-77
2023/06/09 07:32:53;;;;;;;20.85;7.55;;;16.50;99.90;;;;;;4995382;28;20047;-76
2023/06/09 07:35:20;;;;;;;18.33;6.93;;;16.60;99.90;;;;;;4995777;28;20068;-77
2023/06/09 07:37:46;;;;;;;17.05;7.47;;;16.70;99.90;;;;;;4995575;28;20046;-77
2023/06/09 07:40:12;;;;;;;18.80;6.88;;;16.80;99.90;;;;;;4995600;28;20046;-76
2023/06/09 07:42:38;;;;;;;19.65;7.38;;;16.90;99.90;;;;;;4994875;28;20046;-76
2023/06/09 07:45:04;;;;;;;16.67;7.03;;;17.00;99.90;;;;;;4996689;28;20382;-77
2023/06/09 07:47:30;;;;;;;17.13;7.53;;;17.00;99.90;;;;;;4995384;28;20053;-76
2023/06/09 07:49:56;;;;;;;16.20;6.80;;;17.10;99.90;;;;;;4995133;28;20118;-77
2023/06/09 07:52:22;;;;;;;18.83;7.00;;;17.30;99.90;;;;;;4995242;28;20086;-77
2023/06/09 07:54:47;;;;;;;19.05;7.28;;;17.40;99.90;;;;;;4994983;28;20397;-76
2023/06/09 07:57:13;;;;;;;21.83;7.03;;;17.50;99.90;;;;;;4996078;28;20043;-76
2023/06/09 07:59:40;;;;;;;15.82;6.10;;;17.60;99.90;;;;;;4994564;28;20394;-76
2023/06/09 08:02:06;;;;;;;10.77;5.97;;;17.60;99.90;;;;;;4995692;28;20046;-77
2023/06/09 08:04:31;;;;;;;14.93;6.55;;;17.70;99.90;;;;;;4995846;28;20046;-77
2023/06/09 08:07:00;;;;;;;13.73;5.80;;;17.80;99.90;;;;;;4994803;28;20053;-77
2023/06/09 08:09:26;;;;;;;14.98;6.63;;;18.00;99.90;;;;;;4996324;28;20038;-77
2023/06/09 08:11:52;;;;;;;14.45;6.05;;;18.10;99.90;;;;;;4996258;28;20034;-77
2023/06/09 08:14:18;;;;;;;13.85;6.90;;;18.20;99.90;;;;;;4995640;28;20049;-76
2023/06/09 08:16:44;;;;;;;14.32;6.03;;;18.40;99.90;;;;;;4994735;28;20038;-77
2023/06/09 08:19:10;;;;;;;18.02;6.32;;;18.50;99.90;;;;;;4994631;28;20614;-76
2023/06/09 08:21:45;;;;;;;15.57;6.22;;;18.60;99.90;;;;;;4995181;28;20059;-77
2023/06/09 08:24:11;;;;;;;14.90;6.43;;;18.60;99.90;;;;;;4994317;28;20082;-77
2023/06/09 08:26:37;;;;;;;15.20;6.00;;;18.80;99.90;;;;;;4995852;28;20031;-77
2023/06/09 08:29:03;;;;;;;15.77;6.57;;;18.90;99.90;;;;;;4995667;28;20065;-76
2023/06/09 08:31:30;;;;;;;11.07;6.10;;;19.00;99.90;;;;;;4993789;28;20047;-76
2023/06/09 08:33:56;;;;;;;14.07;6.38;;;19.10;99.90;;;;;;4995516;28;20578;-75
2023/06/09 08:36:22;;;;;;;14.80;6.57;;;19.20;99.90;;;;;;4995405;28;20054;-76
2023/06/09 08:38:48;;;;;;;13.93;6.65;;;19.40;99.90;;;;;;4995529;28;20048;-78
2023/06/09 08:41:15;;;;;;;13.30;6.65;;;19.50;99.90;;;;;;4978095;28;20038;-77
2023/06/09 08:43:41;;;;;;;11.88;6.57;;;19.60;99.90;;;;;;4995315;28;20038;-76
2023/06/09 08:46:10;;;;;;;13.32;6.50;;;19.70;99.90;;;;;;4994862;28;20117;-77
2023/06/09 08:48:48;;;;;;;15.13;6.15;;;19.90;99.90;;;;;;4993338;28;20046;-76
2023/06/09 08:51:15;;;;;;;12.70;6.35;;;19.90;99.90;;;;;;4995010;28;20042;-75
2023/06/09 08:53:41;;;;;;;13.45;6.20;;;20.00;99.90;;;;;;4994689;28;20034;-76
2023/06/09 08:56:07;;;;;;;12.20;5.72;;;20.20;99.90;;;;;;4993333;28;20069;-76
2023/06/09 08:58:33;;;;;;;14.63;6.22;;;20.30;99.90;;;;;;4993283;28;20513;-77
2023/06/09 09:01:01;;;;;;;13.93;6.07;;;20.40;99.90;;;;;;4978286;28;20047;-76
2023/06/09 09:03:27;;;;;;;16.67;6.20;;;20.50;99.90;;;;;;4994724;28;20054;-77
2023/06/09 09:05:52;;;;;;;11.77;6.15;;;20.70;99.90;;;;;;4994051;28;20039;-76
2023/06/09 09:08:20;;;;;;;13.50;5.60;;;20.80;99.90;;;;;;4994513;28;20397;-77
2023/06/09 09:10:46;;;;;;;14.98;6.07;;;20.90;99.90;;;;;;4977936;28;20053;-78
2023/06/09 09:13:13;;;;;;;14.07;6.00;;;21.10;99.90;;;;;;4995426;28;20121;-79
2023/06/09 09:15:49;;;;;;;17.13;6.03;;;21.20;99.90;;;;;;4994021;28;20130;-77
2023/06/09 09:18:16;;;;;;;11.02;6.10;;;21.40;99.90;;;;;;4996381;28;20354;-76
2023/06/09 09:20:42;;;;;;;12.43;5.97;;;21.50;99.90;;;;;;4994946;28;20486;-76
2023/06/09 09:23:07;;;;;;;14.25;6.13;;;21.70;99.90;;;;;;4993863;28;20557;-77
2023/06/09 09:25:33;;;;;;;12.20;5.85;;;21.90;99.90;;;;;;4994134;28;20046;-76
2023/06/09 09:28:00;;;;;;;12.85;6.70;;;22.10;99.90;;;;;;4995295;28;20053;-76
2023/06/09 09:30:40;;;;;;;11.15;5.22;;;22.30;99.90;;;;;;4994920;28;20461;-76
2023/06/09 09:33:11;;;;;;;13.40;5.60;;;22.50;99.90;;;;;;4993762;28;20046;-77
2023/06/09 09:35:42;;;;;;;11.43;5.88;;;22.60;99.90;;;;;;4993518;28;20133;-76
2023/06/09 09:38:30;;;;;;;10.40;5.35;;;22.90;99.90;;;;;;4994099;28;20042;-76
2023/06/09 09:41:00;;;;;;;12.20;5.45;;;23.00;99.90;;;;;;4995958;28;20062;-77
2023/06/09 09:43:28;;;;;;;9.55;4.75;;;23.20;99.90;;;;;;4995223;28;20039;-76
2023/06/09 09:45:55;;;;;;;9.77;5.55;;;23.30;99.90;;;;;;4995373;28;20041;-77
2023/06/09 09:48:24;;;;;;;12.05;5.57;;;23.50;99.90;;;;;;4995739;28;20042;-74
2023/06/09 09:50:52;;;;;;;11.43;5.80;;;23.60;99.90;;;;;;4995940;28;20081;-76
2023/06/09 09:53:27;;;;;;;11.35;5.43;;;23.70;99.90;;;;;;4997883;28;20046;-77
2023/06/09 09:55:54;;;;;;;10.30;5.75;;;23.90;99.90;;;;;;4998874;28;20049;-78
2023/06/09 09:58:35;;;;;;;13.10;5.25;;;24.00;99.90;;;;;;4998036;28;20090;-77
2023/06/09 10:01:05;;;;;;;11.45;5.43;;;24.10;99.90;;;;;;4997885;28;20042;-77
2023/06/09 10:03:33;;;;;;;11.23;5.47;;;24.30;99.90;;;;;;4997571;28;20050;-77
2023/06/09 10:06:02;;;;;;;15.10;5.70;;;24.40;99.90;;;;;;4998938;28;20031;-77
2023/06/09 10:08:29;;;;;;;9.23;4.90;;;24.50;99.90;;;;;;4997750;28;20051;-77
2023/06/09 10:10:56;;;;;;;11.68;5.50;;;24.70;99.90;;;;;;4999411;28;20069;-77
2023/06/09 10:13:26;;;;;;;10.65;5.03;;;24.80;99.90;;;;;;4997403;28;20046;-76
2023/06/09 10:15:53;;;;;;;10.18;5.07;;;24.90;99.90;;;;;;4998904;28;20494;-78
2023/06/09 10:18:20;;;;;;;14.40;5.78;;;25.10;99.90;;;;;;4997174;28;20050;-76
2023/06/09 10:20:50;;;;;;;15.10;5.25;;;25.20;99.90;;;;;;4980973;28;20054;-76
2023/06/09 10:23:17;;;;;;;10.50;5.47;;;25.40;99.90;;;;;;4997081;28;20503;-76
2023/06/09 10:25:45;;;;;;;8.70;4.80;;;25.50;99.90;;;;;;4998487;28;20386;-78
2023/06/09 10:28:12;;;;;;;12.05;5.53;;;25.50;99.90;;;;;;4997393;28;20389;-78
2023/06/09 10:30:38;;;;;;;9.68;4.93;;;25.70;99.90;;;;;;4997379;28;20474;-77
2023/06/09 10:33:13;;;;;;;8.77;4.55;;;25.70;99.90;;;;;;4980508;28;20038;-77
2023/06/09 10:35:41;;;;;;;10.05;5.13;;;25.90;99.90;;;;;;4980948;28;20045;-77
2023/06/09 10:38:30;;;;;;;11.98;5.10;;;26.00;99.90;;;;;;4996950;28;20160;-77
2023/06/09 10:41:10;;;;;;;13.27;5.47;;;26.10;99.90;;;;;;4996308;28;20405;-76
2023/06/09 10:44:16;;;;;;;9.93;4.60;;;26.30;99.90;;;;;;4998227;28;20134;-77
2023/06/09 10:46:50;;;;;;;8.80;4.60;;;26.40;99.90;;;;;;4996905;28;20046;-77
2023/06/09 10:49:36;;;;;;;8.88;5.10;;;26.50;99.90;;;;;;4997649;28;20046;-76
2023/06/09 10:52:26;;;;;;;12.70;5.07;;;26.60;99.90;;;;;;4996995;28;20479;-79
2023/06/09 10:55:15;;;;;;;11.45;4.70;;;26.60;99.90;;;;;;4989677;28;20490;-77
2023/06/09 10:57:42;;;;;;;9.10;5.03;;;26.80;99.90;;;;;;4996906;28;20172;-76
2023/06/09 11:00:13;;;;;;;8.00;4.68;;;26.90;99.90;;;;;;4997275;28;20034;-76
2023/06/09 11:02:49;;;;;;;9.10;4.70;;;27.00;99.90;;;;;;4995006;28;20051;-78
2023/06/09 11:05:16;;;;;;;13.80;5.40;;;27.10;99.90;;;;;;4996534;28;20389;-77
2023/06/09 11:07:48;;;;;;;10.48;4.88;;;27.20;99.90;;;;;;4998197;28;20038;-78
2023/06/09 11:10:14;;;;;;;11.38;4.50;;;27.20;99.90;;;;;;4995700;28;20045;-76
2023/06/09 11:12:42;;;;;;;12.80;4.38;;;27.30;99.90;;;;;;4995739;28;20094;-76
2023/06/09 11:15:09;;;;;;;10.15;4.60;;;27.40;99.90;;;;;;4997079;28;20129;-77
2023/06/09 11:17:51;;;;;;;9.93;4.82;;;27.50;99.90;;;;;;4995543;28;20046;-78
2023/06/09 11:20:19;;;;;;;9.80;4.32;;;27.70;99.90;;;;;;4996189;28;20034;-77
2023/06/09 11:22:45;;;;;;;8.32;4.55;;;27.80;99.90;;;;;;4995274;28;20457;-76
2023/06/09 11:25:17;;;;;;;12.57;4.68;;;27.90;99.90;;;;;;4995450;28;20041;-77
2023/06/09 11:27:46;;;;;;;10.30;4.60;;;28.00;99.90;;;;;;4997088;28;20080;-77
2023/06/09 11:30:19;;;;;;;8.13;4.47;;;28.10;99.90;;;;;;4995986;28;20053;-78
2023/06/09 11:32:47;;;;;;;8.00;4.57;;;28.20;99.90;;;;;;4996731;28;20042;-76
2023/06/09 11:35:31;;;;;;;6.70;4.20;;;28.30;99.90;;;;;;4995886;28;20065;-76
2023/06/09 11:38:05;;;;;;;11.48;4.50;;;28.40;99.90;;;;;;4995460;28;20395;-76
2023/06/09 11:40:32;;;;;;;8.68;4.90;;;28.50;99.90;;;;;;4995278;28;20387;-77
2023/06/09 11:43:00;;;;;;;8.70;4.38;;;28.50;99.50;;;;;;4996500;28;20038;-77
2023/06/09 11:45:28;;;;;;;6.93;4.43;;;28.60;99.50;;;;;;4995853;28;20050;-78
2023/06/09 11:47:56;;;;;;;9.25;4.65;;;28.70;98.60;;;;;;4995115;28;20039;-77
2023/06/09 11:50:27;;;;;;;9.52;5.07;;;28.70;98.00;;;;;;4995077;28;20402;-77
2023/06/09 11:53:04;;;;;;;8.50;4.45;;;28.80;97.90;;;;;;4995160;28;20116;-77
2023/06/09 11:55:29;;;;;;;8.55;4.63;;;28.80;96.70;;;;;;4996343;28;20042;-76
2023/06/09 11:57:55;;;;;;;9.05;4.82;;;28.80;96.90;;;;;;4995240;28;20453;-77
2023/06/09 12:00:26;;;;;;;9.15;4.38;;;28.90;96.80;;;;;;4994672;28;20053;-76
2023/06/09 12:02:53;;;;;;;9.63;4.55;;;29.00;96.30;;;;;;4996251;28;20034;-75
2023/06/09 12:05:19;;;;;;;8.43;4.47;;;29.00;95.50;;;;;;4996175;28;20038;-78
2023/06/09 12:07:46;;;;;;;7.60;4.70;;;29.10;95.20;;;;;;4994415;28;20464;-76
2023/06/09 12:10:17;;;;;;;7.07;4.20;;;29.20;94.80;;;;;;4996199;28;20050;-77
2023/06/09 12:12:44;;;;;;;6.28;4.50;;;29.20;94.80;;;;;;4998248;28;20447;-77
2023/06/09 12:15:11;;;;;;;7.63;4.28;;;29.30;94.40;;;;;;4998142;28;20074;-77
2023/06/09 12:17:37;;;;;;;7.88;4.32;;;29.30;94.00;;;;;;4998536;28;20048;-76
2023/06/09 12:20:19;;;;;;;9.35;4.20;;;29.30;94.10;;;;;;4996337;28;20061;-77
2023/06/09 12:22:45;;;;;;;9.60;4.70;;;29.30;94.20;;;;;;4995898;28;20121;-77
2023/06/09 12:25:19;;;;;;;7.45;4.38;;;29.30;93.30;;;;;;4995822;28;20126;-78
2023/06/09 12:27:45;;;;;;;6.07;4.32;;;29.10;92.90;;;;;;4994206;28;20101;-78
2023/06/09 12:30:11;;;;;;;7.22;4.30;;;29.10;92.80;;;;;;4994630;28;20042;-79
2023/06/09 12:32:37;;;;;;;6.65;4.40;;;29.20;92.50;;;;;;4995344;28;20042;-78
2023/06/09 12:35:03;;;;;;;9.43;5.03;;;29.20;92.00;;;;;;4994204;28;20046;-78
2023/06/09 12:37:36;;;;;;;6.63;4.43;;;29.30;91.90;;;;;;4995816;28;20042;-77
2023/06/09 12:40:06;;;;;;;9.52;4.78;;;29.40;92.40;;;;;;4994169;28;20104;-77
2023/06/09 12:42:45;;;;;;;10.40;4.55;;;29.50;92.30;;;;;;4995436;28;20042;-76
2023/06/09 12:45:14;;;;;;;9.00;4.60;;;29.60;92.70;;;;;;4977851;28;20478;-76
2023/06/09 12:47:48;;;;;;;7.65;4.50;;;29.70;91.90;;;;;;4995705;28;20034;-76
2023/06/09 12:50:13;;;;;;;8.55;4.43;;;29.80;91.10;;;;;;4995335;28;20088;-77
2023/06/09 12:52:39;;;;;;;6.88;4.47;;;29.80;91.00;;;;;;4994181;28;20110;-78
2023/06/09 12:55:05;;;;;;;10.35;4.72;;;29.80;90.80;;;;;;4994850;28;20056;-77
2023/06/09 12:57:31;;;;;;;10.27;4.93;;;29.90;90.50;;;;;;4978763;28;20060;-76
2023/06/09 13:00:01;;;;;;;9.13;4.57;;;29.90;90.50;;;;;;4994380;28;20046;-77
2023/06/09 13:02:27;;;;;;;10.43;4.88;;;30.00;90.40;;;;;;4994917;28;20093;-79
2023/06/09 13:04:53;;;;;;;8.65;4.40;;;30.00;89.60;;;;;;4995035;28;20035;-76
2023/06/09 13:07:18;;;;;;;6.65;4.47;;;30.00;89.10;;;;;;4995742;28;20034;-77
2023/06/09 13:09:44;;;;;;;7.68;4.60;;;30.00;89.40;;;;;;4994326;28;20478;-76
2023/06/09 13:12:10;;;;;;;7.63;4.47;;;30.00;89.50;;;;;;4995147;28;20118;-76
2023/06/09 13:14:36;;;;;;;13.77;4.70;;;29.80;88.20;;;;;;4993965;28;20039;-75
2023/06/09 13:17:01;;;;;;;8.90;5.05;;;29.60;87.40;;;;;;4993980;28;20061;-79
2023/06/09 13:19:29;;;;;;;10.40;5.00;;;29.60;87.80;;;;;;4993932;28;20113;-76
2023/06/09 13:21:55;;;;;;;7.40;4.50;;;29.70;87.40;;;;;;4995162;28;20042;-77
2023/06/09 13:24:21;;;;;;;9.23;4.63;;;29.80;87.60;;;;;;4993604;28;20504;-79
2023/06/09 13:26:48;;;;;;;11.07;5.10;;;29.90;88.00;;;;;;4994329;28;20038;-77
2023/06/09 13:29:13;;;;;;;20.02;5.60;;;30.10;87.30;;;;;;4993841;28;20042;-76
2023/06/09 13:31:39;;;;;;;12.23;4.75;;;30.10;84.80;;;;;;4994998;28;20062;-78
2023/06/09 13:34:04;;;;;;;12.45;4.63;;;30.00;85.10;;;;;;4977995;28;20430;-78
2023/06/09 13:36:30;;;;;;;9.23;4.70;;;29.90;84.80;;;;;;4993290;28;20049;-77
2023/06/09 13:38:56;;;;;;;9.32;4.45;;;29.80;84.20;;;;;;4993885;28;20112;-76
2023/06/09 13:41:22;;;;;;;8.80;4.97;;;29.80;83.80;;;;;;4994848;28;20039;-78
2023/06/09 13:43:48;;;;;;;10.18;5.20;;;29.70;84.30;;;;;;4995565;28;20074;-77
2023/06/09 13:46:15;;;;;;;7.80;4.10;;;29.50;84.10;;;;;;4994328;28;20097;-78
2023/06/09 13:48:41;;;;;;;11.10;5.00;;;29.50;84.20;;;;;;4993777;28;20049;-78
2023/06/09 13:51:07;;;;;;;10.57;5.03;;;29.50;83.20;;;;;;4995196;28;20117;-78
2023/06/09 13:53:32;;;;;;;9.18;4.80;;;29.40;82.70;;;;;;4993828;28;20049;-78
2023/06/09 13:55:58;;;;;;;11.35;5.07;;;29.40;82.10;;;;;;4995210;28;20088;-79
2023/06/09 13:58:24;;;;;;;6.30;4.30;;;29.20;82.00;;;;;;4993322;28;20125;-76
2023/06/09 14:00:49;;;;;;;9.20;4.78;;;29.30;82.50;;;;;;4994793;28;20047;-77
2023/06/09 14:03:15;;;;;;;7.82;4.25;;;29.30;83.00;;;;;;4993498;28;20043;-77
2023/06/09 14:05:41;;;;;;;13.80;5.13;;;29.40;82.80;;;;;;4994768;28;20100;-80
2023/06/09 14:08:06;;;;;;;12.35;5.25;;;29.60;82.00;;;;;;4994106;28;20046;-79
2023/06/09 14:10:32;;;;;;;8.68;4.68;;;29.70;81.10;;;;;;4993782;28;20394;-77
2023/06/09 14:12:58;;;;;;;11.45;4.93;;;29.70;81.80;;;;;;4993767;28;20375;-77
2023/06/09 14:15:23;;;;;;;8.27;4.72;;;29.70;82.40;;;;;;4994090;28;20053;-78
2023/06/09 14:17:49;;;;;;;8.82;4.45;;;29.80;82.70;;;;;;4994947;28;20045;-78
2023/06/09 14:20:21;;;;;;;12.15;5.07;;;29.80;81.90;;;;;;4995182;28;20042;-77
2023/06/09 14:22:47;;;;;;;11.73;4.88;;;29.70;80.50;;;;;;4994946;28;20121;-77
2023/06/09 14:25:18;;;;;;;10.23;4.68;;;29.50;79.90;;;;;;4993696;28;20046;-79
2023/06/09 14:27:45;;;;;;;10.65;4.78;;;29.30;80.10;;;;;;4993702;28;20429;-77
2023/06/09 14:30:13;;;;;;;8.55;4.63;;;29.20;79.80;;;;;;4994163;28;20030;-76
2023/06/09 14:32:41;;;;;;;8.65;4.85;;;29.10;79.70;;;;;;4993259;28;20074;-78
2023/06/09 14:35:07;;;;;;;8.63;4.50;;;28.90;79.40;;;;;;4994675;28;20046;-77
2023/06/09 14:37:32;;;;;;;7.60;4.90;;;28.90;79.60;;;;;;4995754;28;20038;-78
2023/06/09 14:39:58;;;;;;;8.52;4.50;;;29.00;79.80;;;;;;4997028;28;20121;-79
2023/06/09 14:42:24;;;;;;;7.00;4.60;;;29.20;79.90;;;;;;4998668;28;20038;-78
2023/06/09 14:44:49;;;;;;;10.48;4.53;;;29.40;79.90;;;;;;4980769;28;20042;-77
2023/06/09 14:47:15;;;;;;;10.45;4.72;;;29.50;80.20;;;;;;4996506;28;20038;-77
2023/06/09 14:49:41;;;;;;;8.85;4.28;;;29.60;80.60;;;;;;4997646;28;20061;-79
2023/06/09 14:52:07;;;;;;;9.00;4.70;;;29.50;79.60;;;;;;4997064;28;20114;-79
2023/06/09 14:54:33;;;;;;;5.75;4.25;;;29.50;79.10;;;;;;4996879;28;20517;-78
2023/06/09 14:56:59;;;;;;;7.28;4.32;;;29.40;80.80;;;;;;4997261;28;20046;-79
2023/06/09 14:59:24;;;;;;;8.77;4.72;;;29.50;80.20;;;;;;4998417;28;20510;-77
2023/06/09 15:01:50;;;;;;;8.18;4.43;;;29.70;80.10;;;;;;4997879;28;20132;-79
2023/06/09 15:04:16;;;;;;;9.98;4.60;;;29.80;80.10;;;;;;4997768;28;20043;-77
2023/06/09 15:06:41;;;;;;;7.25;4.10;;;29.90;79.50;;;;;;4996039;28;20070;-77
2023/06/09 15:09:07;;;;;;;12.75;4.70;;;29.80;78.90;;;;;;4997552;28;20038;-79
2023/06/09 15:11:32;;;;;;;8.82;4.47;;;29.80;79.30;;;;;;4996391;28;20039;-79
2023/06/09 15:13:58;;;;;;;15.50;4.93;;;29.90;79.50;;;;;;4996492;28;20087;-78
2023/06/09 15:16:24;;;;;;;8.45;4.45;;;29.90;79.50;;;;;;4997410;28;20081;-78
2023/06/09 15:18:49;;;;;;;8.32;4.32;;;29.90;79.40;;;;;;4996009;28;20502;-78
2023/06/09 15:21:15;;;;;;;8.43;4.13;;;29.90;79.70;;;;;;4997172;28;20057;-79
2023/06/09 15:23:41;;;;;;;8.60;4.68;;;30.00;78.60;;;;;;4997327;28;20375;-78
2023/06/09 15:26:06;;;;;;;9.55;4.65;;;30.00;78.40;;;;;;4997628;28;20065;-77
2023/06/09 15:28:32;;;;;;;6.20;4.60;;;30.10;78.30;;;;;;4996899;28;20030;-79
2023/06/09 15:30:58;;;;;;;9.00;4.55;;;30.00;77.50;;;;;;4996925;28;20034;-78
2023/06/09 15:33:23;;;;;;;6.45;4.70;;;30.00;77.50;;;;;;4997212;28;20507;-78
2023/06/09 15:35:54;;;;;;;7.15;4.20;;;29.90;76.10;;;;;;4995701;28;20042;-77
2023/06/09 15:38:24;;;;;;;8.32;4.38;;;29.90;76.20;;;;;;4996212;28;20070;-76
2023/06/09 15:40:52;;;;;;;7.47;4.47;;;29.90;77.60;;;;;;4995795;28;20109;-78
2023/06/09 15:43:19;;;;;;;10.68;4.50;;;29.90;79.70;;;;;;4995775;28;20045;-78